Time;durP1;ratioP1;P1;durP2;ratioP2;P2;SDS_P1;SDS_P2;PMS_P1;PMS_P2;Temp;Humidity;BMP_temperature;BMP_pressure;BME280_temperature;BME280_humidity;BME280_pressure;Samples;Min_cycle;Max_cycle;Signal;HPM_P1;HPM_P2
2022/01/29 00:01:34;;;;;;;25.52;16.38;;;2.00;99.90;;;;;;5044302;28;20017;-75
2022/01/29 00:04:00;;;;;;;21.92;16.92;;;2.00;99.90;;;;;;5042220;28;20026;-75
2022/01/29 00:06:25;;;;;;;26.45;18.05;;;2.00;99.90;;;;;;5048755;28;20032;-75
2022/01/29 00:08:53;;;;;;;26.33;19.20;;;2.00;99.90;;;;;;5041152;28;20057;-74
2022/01/29 00:11:19;;;;;;;25.60;19.73;;;2.00;99.90;;;;;;5047073;28;20036;-75
2022/01/29 00:13:45;;;;;;;28.23;22.10;;;2.10;99.90;;;;;;5042266;28;20025;-74
2022/01/29 00:16:11;;;;;;;30.00;20.95;;;2.10;99.90;;;;;;5039152;28;20025;-74
2022/01/29 00:18:36;;;;;;;32.53;24.50;;;2.10;99.90;;;;;;5042276;28;20025;-74
2022/01/29 00:21:03;;;;;;;32.55;23.45;;;2.30;99.90;;;;;;5048395;28;20572;-74
2022/01/29 00:23:29;;;;;;;29.77;22.13;;;2.20;99.90;;;;;;5045790;28;20047;-75
2022/01/29 00:25:54;;;;;;;32.22;24.60;;;2.20;99.90;;;;;;5044888;28;20495;-74
2022/01/29 00:28:20;;;;;;;34.03;23.98;;;2.20;99.90;;;;;;5041453;28;20025;-74
2022/01/29 00:30:46;;;;;;;30.70;25.08;;;2.20;99.90;;;;;;5043796;28;20056;-75
2022/01/29 00:33:12;;;;;;;32.00;24.38;;;2.20;99.90;;;;;;5040502;28;20031;-75
2022/01/29 00:35:39;;;;;;;32.50;25.95;;;2.30;99.90;;;;;;5044992;28;20010;-75
2022/01/29 00:38:05;;;;;;;32.53;24.55;;;2.30;99.90;;;;;;5038367;28;20022;-74
2022/01/29 00:40:31;;;;;;;31.52;25.27;;;2.30;99.90;;;;;;5046082;28;20017;-74
2022/01/29 00:42:57;;;;;;;32.95;25.50;;;2.30;99.90;;;;;;5042555;28;20072;-74
2022/01/29 00:45:23;;;;;;;34.38;25.00;;;2.50;99.90;;;;;;5046335;28;20022;-76
2022/01/29 00:47:49;;;;;;;38.50;26.55;;;2.30;99.90;;;;;;5037012;28;20024;-74
2022/01/29 00:50:15;;;;;;;33.25;26.35;;;2.50;99.90;;;;;;5045693;28;20697;-74
2022/01/29 00:52:40;;;;;;;36.97;27.02;;;2.30;99.90;;;;;;5046743;28;20052;-75
2022/01/29 00:55:08;;;;;;;31.75;26.10;;;2.30;99.90;;;;;;5041583;28;20078;-74
2022/01/29 00:57:35;;;;;;;36.75;26.10;;;2.40;99.90;;;;;;5045589;28;20024;-74
2022/01/29 01:00:01;;;;;;;32.58;24.17;;;2.40;99.90;;;;;;5043575;28;20021;-74
2022/01/29 01:02:26;;;;;;;35.17;24.50;;;2.40;99.90;;;;;;5035423;28;20151;-75
2022/01/29 01:04:52;;;;;;;32.70;24.55;;;2.40;99.90;;;;;;5043678;28;20032;-76
2022/01/29 01:07:17;;;;;;;32.28;24.08;;;2.50;99.90;;;;;;5040235;28;20023;-74
2022/01/29 01:09:43;;;;;;;36.05;24.65;;;2.50;99.90;;;;;;5044154;28;20021;-74
2022/01/29 01:12:09;;;;;;;32.90;24.45;;;2.50;99.90;;;;;;5042467;28;20112;-74
2022/01/29 01:14:35;;;;;;;34.63;27.15;;;2.50;99.90;;;;;;5044462;28;20056;-75
2022/01/29 01:17:00;;;;;;;33.35;23.85;;;2.50;99.90;;;;;;5042479;28;20384;-74
2022/01/29 01:19:26;;;;;;;31.25;23.52;;;2.50;99.90;;;;;;5045615;28;20029;-74
2022/01/29 01:21:56;;;;;;;30.30;24.30;;;2.50;99.90;;;;;;5039836;28;20080;-74
2022/01/29 01:24:22;;;;;;;31.25;23.88;;;2.50;99.90;;;;;;5043120;28;20036;-75
2022/01/29 01:26:48;;;;;;;34.05;24.23;;;2.50;99.90;;;;;;5048782;28;20017;-75
2022/01/29 01:29:14;;;;;;;33.78;24.65;;;2.60;99.90;;;;;;5042741;28;20027;-75
2022/01/29 01:31:42;;;;;;;29.98;23.58;;;2.50;99.90;;;;;;5045973;28;20013;-75
2022/01/29 01:34:08;;;;;;;29.50;24.00;;;2.60;99.90;;;;;;5042080;28;20021;-75
2022/01/29 01:36:40;;;;;;;32.60;23.15;;;2.60;99.90;;;;;;5043080;28;20039;-75
2022/01/29 01:39:09;;;;;;;30.30;23.85;;;2.70;99.90;;;;;;5043417;28;20036;-75
2022/01/29 01:41:41;;;;;;;31.42;23.15;;;2.60;99.90;;;;;;5043888;28;20044;-75
2022/01/29 01:44:10;;;;;;;32.00;23.33;;;2.70;99.90;;;;;;5033313;28;20025;-75
2022/01/29 01:46:36;;;;;;;33.33;22.50;;;2.90;99.90;;;;;;5020254;28;20660;-74
2022/01/29 01:49:02;;;;;;;28.33;22.40;;;2.70;99.90;;;;;;5025609;28;20124;-75
2022/01/29 01:51:29;;;;;;;28.73;21.45;;;2.70;99.90;;;;;;5023457;28;20054;-75
2022/01/29 01:53:54;;;;;;;27.65;21.63;;;2.60;99.90;;;;;;5029056;28;20567;-74
2022/01/29 01:56:20;;;;;;;27.83;22.00;;;2.70;99.90;;;;;;5032239;28;20037;-74
2022/01/29 01:58:46;;;;;;;26.85;21.70;;;2.70;99.90;;;;;;5018742;28;20120;-73
2022/01/29 02:01:12;;;;;;;28.38;21.40;;;2.70;99.90;;;;;;5019820;28;20048;-74
2022/01/29 02:03:38;;;;;;;29.85;20.92;;;2.70;99.90;;;;;;5015126;28;20395;-74
2022/01/29 02:06:04;;;;;;;28.40;21.65;;;2.70;99.90;;;;;;5030891;28;20025;-74
2022/01/29 02:08:30;;;;;;;27.65;21.35;;;2.70;99.90;;;;;;5018779;28;20025;-74
2022/01/29 02:11:04;;;;;;;29.60;21.38;;;2.70;99.90;;;;;;5020767;28;20022;-75
2022/01/29 02:13:30;;;;;;;26.23;20.48;;;2.70;99.90;;;;;;5017813;28;20029;-74
2022/01/29 02:15:56;;;;;;;28.83;21.27;;;2.90;99.90;;;;;;5030797;28;20036;-76
2022/01/29 02:18:21;;;;;;;26.45;20.92;;;2.70;99.90;;;;;;5025563;28;20030;-76
2022/01/29 02:20:48;;;;;;;28.77;20.42;;;2.70;99.90;;;;;;5024062;28;20049;-76
2022/01/29 02:23:14;;;;;;;25.77;20.45;;;2.80;99.90;;;;;;5020471;28;20052;-75
2022/01/29 02:25:41;;;;;;;29.60;20.75;;;2.60;99.90;;;;;;5021755;28;20080;-76
2022/01/29 02:28:07;;;;;;;30.75;21.45;;;2.70;99.90;;;;;;5033708;28;20056;-76
2022/01/29 02:30:35;;;;;;;27.38;20.75;;;2.60;99.90;;;;;;5036122;28;20014;-76
2022/01/29 02:33:05;;;;;;;27.85;22.50;;;2.60;99.90;;;;;;5036075;28;20029;-76
2022/01/29 02:35:30;;;;;;;25.92;22.00;;;2.60;99.90;;;;;;5028325;28;20048;-76
2022/01/29 02:37:58;;;;;;;26.05;21.67;;;2.60;99.90;;;;;;5031766;28;20021;-76
2022/01/29 02:40:24;;;;;;;27.02;21.60;;;2.50;99.90;;;;;;5031425;28;20118;-74
2022/01/29 02:42:52;;;;;;;29.95;22.95;;;2.60;99.90;;;;;;5031621;28;20014;-75
2022/01/29 02:45:18;;;;;;;30.20;22.48;;;2.60;99.90;;;;;;5033425;28;20483;-76
2022/01/29 02:47:44;;;;;;;29.58;22.30;;;2.50;99.90;;;;;;5031593;28;20014;-75
2022/01/29 02:50:09;;;;;;;29.02;23.85;;;2.50;99.90;;;;;;5030079;28;20479;-75
2022/01/29 02:52:35;;;;;;;34.28;24.80;;;2.50;99.90;;;;;;5031945;28;20475;-75
2022/01/29 02:55:02;;;;;;;29.58;23.08;;;2.50;99.90;;;;;;5031014;28;20511;-75
2022/01/29 02:57:28;;;;;;;30.70;23.42;;;2.50;99.90;;;;;;5019006;28;20034;-76
2022/01/29 02:59:57;;;;;;;33.03;24.83;;;2.50;99.90;;;;;;5018183;28;20033;-75
2022/01/29 03:02:23;;;;;;;32.47;24.65;;;2.40;99.90;;;;;;5022491;28;20022;-74
2022/01/29 03:04:48;;;;;;;31.92;24.48;;;2.50;99.90;;;;;;5024969;28;20036;-74
2022/01/29 03:07:14;;;;;;;30.85;23.80;;;2.40;99.90;;;;;;5017824;28;20025;-74
2022/01/29 03:09:39;;;;;;;35.08;23.67;;;2.50;99.90;;;;;;5018318;28;20488;-74
2022/01/29 03:12:05;;;;;;;31.10;23.38;;;2.40;99.90;;;;;;5023928;28;20030;-75
2022/01/29 03:14:31;;;;;;;32.20;22.90;;;2.40;99.90;;;;;;5024738;28;20380;-74
2022/01/29 03:16:56;;;;;;;31.40;24.15;;;2.40;99.90;;;;;;5019478;28;20096;-74
2022/01/29 03:19:22;;;;;;;29.00;23.20;;;2.40;99.90;;;;;;5026043;28;20500;-74
2022/01/29 03:21:47;;;;;;;28.05;22.98;;;2.50;99.90;;;;;;5027756;28;20034;-74
2022/01/29 03:24:13;;;;;;;31.30;23.52;;;2.40;99.90;;;;;;5036258;28;20044;-75
2022/01/29 03:26:38;;;;;;;29.95;21.98;;;2.40;99.90;;;;;;5033758;28;20029;-75
2022/01/29 03:29:04;;;;;;;30.55;23.80;;;2.40;99.90;;;;;;5021320;28;20029;-75
2022/01/29 03:31:29;;;;;;;29.52;21.25;;;2.40;99.90;;;;;;5028067;28;20057;-74
2022/01/29 03:33:55;;;;;;;28.02;22.10;;;2.40;99.90;;;;;;5032380;28;20034;-74
2022/01/29 03:36:21;;;;;;;29.75;22.70;;;2.40;99.90;;;;;;5028393;28;20033;-74
2022/01/29 03:38:46;;;;;;;27.73;21.08;;;2.40;99.90;;;;;;5028032;28;20033;-74
2022/01/29 03:41:13;;;;;;;30.42;22.13;;;2.40;99.90;;;;;;5021295;28;20454;-75
2022/01/29 03:43:45;;;;;;;30.33;22.20;;;2.40;99.90;;;;;;5021417;28;20544;-74
2022/01/29 03:46:11;;;;;;;29.33;21.73;;;2.40;99.90;;;;;;5027106;28;20025;-74
2022/01/29 03:48:37;;;;;;;29.58;22.25;;;2.50;99.90;;;;;;5026801;28;20028;-76
2022/01/29 03:51:03;;;;;;;26.58;21.38;;;2.40;99.90;;;;;;5021116;28;20018;-75
2022/01/29 03:53:28;;;;;;;29.30;21.13;;;2.40;99.90;;;;;;5021279;28;20029;-75
2022/01/29 03:55:54;;;;;;;28.40;20.98;;;2.40;99.90;;;;;;5026978;28;20076;-75
2022/01/29 03:58:19;;;;;;;28.30;22.42;;;2.50;99.90;;;;;;5027951;28;20502;-75
2022/01/29 04:00:45;;;;;;;26.67;20.40;;;2.40;99.90;;;;;;5022122;28;20025;-75
2022/01/29 04:03:10;;;;;;;24.83;19.55;;;2.40;99.90;;;;;;5021096;28;20431;-75
2022/01/29 04:05:36;;;;;;;26.08;20.60;;;2.40;99.90;;;;;;5034333;28;20022;-75
2022/01/29 04:08:07;;;;;;;26.40;19.70;;;2.40;99.90;;;;;;5030912;28;20029;-75
2022/01/29 04:10:32;;;;;;;23.42;18.67;;;2.40;99.90;;;;;;5032762;28;20110;-75
2022/01/29 04:12:58;;;;;;;23.23;18.80;;;2.40;99.90;;;;;;5026118;28;20050;-75
2022/01/29 04:15:23;;;;;;;27.00;19.30;;;2.40;99.90;;;;;;5026679;28;20099;-75
2022/01/29 04:17:49;;;;;;;22.90;17.85;;;2.40;99.90;;;;;;5027497;28;20033;-73
2022/01/29 04:20:15;;;;;;;23.92;19.25;;;2.40;99.90;;;;;;5023349;28;20025;-73
2022/01/29 04:22:40;;;;;;;23.30;18.08;;;2.40;99.90;;;;;;5038677;28;20057;-73
2022/01/29 04:25:07;;;;;;;22.33;18.48;;;2.40;99.90;;;;;;5026660;28;20427;-73
2022/01/29 04:27:40;;;;;;;22.80;18.10;;;2.40;99.90;;;;;;5028161;28;20022;-73
2022/01/29 04:35:16;;;;;;;21.98;17.25;;;2.40;99.90;;;;;;5022952;28;20061;-75
2022/01/29 04:37:42;;;;;;;23.50;18.05;;;2.30;99.90;;;;;;5027292;28;20034;-75
2022/01/29 04:40:08;;;;;;;23.63;18.02;;;2.40;99.90;;;;;;5024528;28;20376;-73
2022/01/29 04:42:33;;;;;;;23.15;17.73;;;2.40;99.90;;;;;;5020108;28;20091;-73
2022/01/29 04:44:59;;;;;;;22.58;18.30;;;2.40;99.90;;;;;;5021552;28;20026;-73
2022/01/29 04:47:25;;;;;;;21.48;17.50;;;2.30;99.90;;;;;;5026861;28;20162;-72
2022/01/29 04:49:50;;;;;;;24.83;18.20;;;2.50;99.90;;;;;;5024215;28;20018;-73
2022/01/29 04:52:16;;;;;;;23.40;18.10;;;2.50;99.90;;;;;;5019925;28;20025;-74
2022/01/29 04:54:41;;;;;;;24.67;17.52;;;2.40;99.90;;;;;;5029467;28;20029;-74
2022/01/29 04:57:07;;;;;;;24.65;16.98;;;2.40;99.90;;;;;;5033363;28;20033;-74
2022/01/29 04:59:32;;;;;;;21.38;17.05;;;2.40;99.90;;;;;;5031913;28;20021;-73
2022/01/29 05:01:58;;;;;;;19.17;15.63;;;2.50;99.90;;;;;;5035655;28;20029;-73
2022/01/29 05:04:23;;;;;;;22.38;17.65;;;2.30;99.90;;;;;;5022557;28;20503;-73
2022/01/29 05:06:49;;;;;;;23.08;17.15;;;2.30;99.90;;;;;;5030315;28;20053;-73
2022/01/29 05:09:15;;;;;;;21.02;16.35;;;2.30;99.90;;;;;;5031771;28;20030;-75
2022/01/29 05:11:43;;;;;;;20.88;16.05;;;2.30;99.90;;;;;;5019581;28;20018;-75
2022/01/29 05:14:17;;;;;;;22.60;17.90;;;2.30;99.90;;;;;;5022259;28;20026;-76
2022/01/29 05:26:50;;;;;;;21.02;15.75;;;2.30;99.90;;;;;;5019839;28;20079;-77
2022/01/29 05:27:33;;;;;;;24.40;17.38;;;2.30;99.90;;;;;;5019472;28;20611;-75
2022/01/29 05:29:58;;;;;;;21.13;16.63;;;2.30;99.90;;;;;;5023753;28;20120;-75
2022/01/29 05:32:24;;;;;;;21.90;16.45;;;2.40;99.90;;;;;;5013588;28;20105;-77
2022/01/29 05:34:50;;;;;;;20.88;16.65;;;2.30;99.90;;;;;;5025224;28;20107;-74
2022/01/29 05:37:15;;;;;;;25.02;20.23;;;2.30;99.90;;;;;;5026052;28;20032;-75
2022/01/29 05:39:41;;;;;;;26.35;18.70;;;2.40;99.90;;;;;;5019311;28;20487;-74
2022/01/29 05:42:07;;;;;;;39.45;32.55;;;2.30;99.90;;;;;;5032133;28;20738;-74
2022/01/29 05:44:32;;;;;;;28.60;22.48;;;2.30;99.90;;;;;;5018088;28;20040;-74
2022/01/29 05:46:58;;;;;;;28.23;23.60;;;2.30;99.90;;;;;;5037327;28;20023;-73
2022/01/29 05:49:23;;;;;;;29.33;24.42;;;2.30;99.90;;;;;;5030945;28;20021;-72
2022/01/29 05:51:49;;;;;;;27.27;19.95;;;2.30;99.90;;;;;;5032172;28;20052;-73
2022/01/29 05:54:15;;;;;;;24.95;18.73;;;2.40;99.90;;;;;;5018925;28;20087;-73
2022/01/29 05:56:40;;;;;;;22.95;18.17;;;2.30;99.90;;;;;;5019226;28;20492;-73
2022/01/29 05:59:06;;;;;;;28.52;20.35;;;2.30;99.90;;;;;;5025747;28;20065;-73
2022/01/29 06:01:31;;;;;;;26.10;20.45;;;2.30;99.90;;;;;;5024126;28;20470;-75
2022/01/29 06:03:57;;;;;;;25.63;19.05;;;2.20;99.90;;;;;;5025927;28;20022;-75
2022/01/29 06:06:22;;;;;;;26.35;18.83;;;2.30;99.90;;;;;;5024003;28;20026;-74
2022/01/29 06:08:48;;;;;;;25.73;18.85;;;2.30;99.90;;;;;;5017309;28;20398;-74
2022/01/29 06:11:13;;;;;;;28.40;19.45;;;2.40;99.90;;;;;;5031868;28;20040;-74
2022/01/29 06:13:39;;;;;;;24.38;18.83;;;2.40;99.90;;;;;;5017621;28;20228;-75
2022/01/29 06:16:05;;;;;;;27.38;19.75;;;2.30;99.90;;;;;;5019526;28;20030;-73
2022/01/29 06:18:31;;;;;;;25.35;19.85;;;2.30;99.90;;;;;;5025464;28;20104;-73
2022/01/29 06:21:03;;;;;;;26.83;21.17;;;2.50;99.90;;;;;;5024418;28;20119;-73
2022/01/29 06:23:31;;;;;;;25.83;20.25;;;2.30;99.90;;;;;;5018623;28;20025;-75
2022/01/29 06:25:58;;;;;;;27.50;19.92;;;2.20;99.90;;;;;;5018682;28;20026;-75
2022/01/29 06:28:24;;;;;;;25.52;19.95;;;2.30;99.90;;;;;;5031801;28;20063;-75
2022/01/29 06:30:50;;;;;;;27.75;19.77;;;2.30;99.90;;;;;;5030028;28;20466;-75
2022/01/29 06:33:16;;;;;;;24.35;20.13;;;2.30;99.90;;;;;;5018941;28;20032;-75
2022/01/29 06:35:43;;;;;;;31.83;23.50;;;2.30;99.90;;;;;;5017049;28;20037;-75
2022/01/29 06:38:10;;;;;;;34.13;26.05;;;2.30;99.90;;;;;;5023717;28;20045;-74
2022/01/29 06:40:36;;;;;;;28.90;21.70;;;2.40;99.90;;;;;;5025214;28;20112;-73
2022/01/29 06:43:04;;;;;;;26.70;20.92;;;2.30;99.90;;;;;;5019940;28;20056;-76
2022/01/29 06:45:30;;;;;;;32.05;22.48;;;2.40;99.90;;;;;;5016980;28;20030;-75
2022/01/29 06:47:55;;;;;;;26.98;20.30;;;2.50;99.90;;;;;;5021820;28;20021;-77
2022/01/29 06:50:21;;;;;;;30.25;22.13;;;2.40;99.90;;;;;;5024691;28;20152;-75
2022/01/29 06:52:47;;;;;;;30.77;21.08;;;2.50;99.90;;;;;;5028463;28;20072;-76
2022/01/29 06:55:12;;;;;;;25.23;20.25;;;2.40;99.90;;;;;;5030449;28;20025;-74
2022/01/29 06:57:38;;;;;;;28.75;21.45;;;2.40;99.90;;;;;;5025785;28;20030;-75
2022/01/29 07:00:07;;;;;;;31.23;21.60;;;2.40;99.90;;;;;;5028846;28;20076;-74
2022/01/29 07:02:33;;;;;;;30.50;22.25;;;2.50;99.90;;;;;;5024561;28;20032;-75
2022/01/29 07:04:58;;;;;;;29.30;21.50;;;2.40;99.90;;;;;;5021022;28;20026;-75
2022/01/29 07:07:24;;;;;;;29.38;21.77;;;2.50;99.90;;;;;;5025999;28;20388;-74
2022/01/29 07:09:50;;;;;;;28.33;21.38;;;2.50;99.90;;;;;;5028930;28;20124;-74
2022/01/29 07:12:15;;;;;;;29.83;21.83;;;2.40;99.90;;;;;;5022661;28;20026;-74
2022/01/29 07:14:41;;;;;;;29.42;21.73;;;2.50;99.90;;;;;;5022016;28;20029;-74
2022/01/29 07:17:16;;;;;;;31.27;22.45;;;2.60;99.90;;;;;;5026787;28;20069;-74
2022/01/29 07:19:42;;;;;;;29.75;22.45;;;2.50;99.90;;;;;;5028417;28;20030;-74
2022/01/29 07:22:08;;;;;;;32.53;22.90;;;2.50;99.90;;;;;;5025086;28;20036;-76
2022/01/29 07:24:34;;;;;;;28.05;22.30;;;2.50;99.90;;;;;;5020640;28;20463;-76
2022/01/29 07:27:00;;;;;;;29.65;21.40;;;2.50;99.90;;;;;;5024772;28;20022;-76
2022/01/29 07:29:26;;;;;;;33.17;23.75;;;2.50;99.90;;;;;;5027407;28;20443;-75
2022/01/29 07:31:51;;;;;;;32.75;23.70;;;2.50;99.90;;;;;;5023318;28;20589;-75
2022/01/29 07:34:17;;;;;;;33.00;22.52;;;2.50;99.90;;;;;;5030087;28;20029;-75
2022/01/29 07:36:43;;;;;;;31.35;22.40;;;2.50;99.90;;;;;;5024960;28;20030;-75
2022/01/29 07:39:09;;;;;;;28.23;22.15;;;2.40;99.90;;;;;;5031557;28;20033;-75
2022/01/29 07:41:35;;;;;;;31.92;22.42;;;2.60;99.90;;;;;;5024867;28;20040;-75
2022/01/29 07:44:00;;;;;;;31.83;23.35;;;2.50;99.90;;;;;;5026219;28;20030;-75
2022/01/29 07:46:26;;;;;;;30.65;22.27;;;2.50;99.90;;;;;;5020775;28;20030;-75
2022/01/29 07:48:51;;;;;;;28.85;22.70;;;2.60;99.90;;;;;;5031287;28;20022;-74
2022/01/29 07:51:17;;;;;;;32.63;22.77;;;2.50;99.90;;;;;;5022703;28;20029;-74
2022/01/29 07:53:42;;;;;;;34.25;23.25;;;2.50;99.90;;;;;;5016610;28;20029;-74
2022/01/29 07:56:08;;;;;;;28.23;21.80;;;2.60;99.90;;;;;;5033380;28;20683;-74
2022/01/29 07:58:33;;;;;;;27.65;21.63;;;2.60;99.90;;;;;;5020884;28;20029;-74
2022/01/29 08:00:59;;;;;;;29.50;22.33;;;2.60;99.90;;;;;;5024865;28;20026;-74
2022/01/29 08:03:25;;;;;;;28.63;21.58;;;2.70;99.90;;;;;;5025952;28;20391;-74
2022/01/29 08:05:51;;;;;;;28.10;21.70;;;2.60;99.90;;;;;;5022506;28;20018;-74
2022/01/29 08:08:16;;;;;;;27.75;21.63;;;2.50;99.90;;;;;;5034201;28;20120;-76
2022/01/29 08:10:42;;;;;;;29.52;21.65;;;2.60;99.90;;;;;;5032724;28;20025;-75
2022/01/29 08:13:07;;;;;;;63.85;42.22;;;2.60;99.90;;;;;;5019581;28;20022;-75
2022/01/29 08:15:33;;;;;;;38.30;25.88;;;2.70;99.90;;;;;;5024077;28;20408;-75
2022/01/29 08:17:58;;;;;;;67.28;45.75;;;2.60;99.90;;;;;;5027646;28;20033;-75
2022/01/29 08:20:24;;;;;;;30.30;23.10;;;2.60;99.90;;;;;;5022512;28;20074;-75
2022/01/29 08:22:49;;;;;;;29.73;21.63;;;2.60;99.90;;;;;;5020683;28;20060;-75
2022/01/29 08:25:15;;;;;;;29.83;22.75;;;2.60;99.90;;;;;;5033918;28;20492;-75
2022/01/29 08:27:41;;;;;;;28.42;21.70;;;2.50;99.90;;;;;;5022115;28;20036;-76
2022/01/29 08:30:07;;;;;;;27.83;21.40;;;2.60;99.90;;;;;;5040178;28;20364;-76
2022/01/29 08:32:33;;;;;;;26.05;21.55;;;2.80;99.90;;;;;;5039348;28;20503;-75
2022/01/29 08:34:58;;;;;;;26.88;20.17;;;2.60;99.90;;;;;;5033821;28;20021;-75
2022/01/29 08:37:24;;;;;;;27.77;21.50;;;2.60;99.90;;;;;;5028633;28;20502;-75
2022/01/29 08:39:50;;;;;;;27.02;20.63;;;2.60;99.90;;;;;;5044142;28;20029;-75
2022/01/29 08:42:16;;;;;;;27.75;22.02;;;2.60;99.90;;;;;;5028751;28;20041;-75
2022/01/29 08:44:42;;;;;;;32.10;23.95;;;2.60;99.90;;;;;;5041770;28;20025;-75
2022/01/29 08:47:08;;;;;;;29.05;22.65;;;2.70;99.90;;;;;;5029849;28;20033;-75
2022/01/29 08:49:34;;;;;;;34.72;23.98;;;2.70;99.90;;;;;;5031894;28;20017;-74
2022/01/29 08:51:59;;;;;;;32.90;23.95;;;2.60;99.90;;;;;;5032494;28;20026;-75
2022/01/29 08:54:25;;;;;;;39.30;25.92;;;2.50;99.90;;;;;;5046687;28;20032;-74
2022/01/29 08:56:50;;;;;;;32.63;24.23;;;2.50;99.90;;;;;;5031355;28;20021;-74
2022/01/29 08:59:16;;;;;;;36.22;25.65;;;2.50;99.90;;;;;;5038734;28;20423;-74
2022/01/29 09:01:41;;;;;;;34.55;26.33;;;2.50;99.90;;;;;;5037147;28;20088;-74
2022/01/29 09:04:08;;;;;;;37.22;25.60;;;2.50;99.90;;;;;;5028628;28;20117;-74
2022/01/29 09:06:34;;;;;;;42.47;27.65;;;2.50;99.90;;;;;;5032398;28;20018;-75
2022/01/29 09:08:59;;;;;;;37.83;26.75;;;2.40;99.90;;;;;;5031555;28;20018;-75
2022/01/29 09:11:25;;;;;;;37.45;26.85;;;2.40;99.90;;;;;;5039760;28;20431;-75
2022/01/29 09:13:50;;;;;;;41.80;27.45;;;2.40;99.90;;;;;;5031601;28;20109;-75
2022/01/29 09:16:16;;;;;;;39.22;27.25;;;2.50;99.90;;;;;;5039513;28;20041;-75
2022/01/29 09:18:42;;;;;;;40.13;28.27;;;2.40;99.90;;;;;;5028631;28;20061;-75
2022/01/29 09:21:07;;;;;;;40.60;28.10;;;2.40;99.90;;;;;;5031168;28;20037;-75
2022/01/29 09:23:33;;;;;;;42.50;28.13;;;2.50;99.90;;;;;;5038139;28;20028;-75
2022/01/29 09:25:58;;;;;;;43.08;29.67;;;2.40;99.90;;;;;;5033017;28;20024;-75
2022/01/29 09:28:24;;;;;;;46.72;30.45;;;2.40;99.90;;;;;;5028864;28;20020;-75
2022/01/29 09:30:50;;;;;;;40.80;28.80;;;2.40;99.90;;;;;;5024809;28;20387;-75
2022/01/29 09:33:17;;;;;;;43.47;29.30;;;2.40;99.90;;;;;;5030065;28;20040;-75
2022/01/29 09:35:43;;;;;;;41.58;27.63;;;2.30;99.90;;;;;;5038698;28;20075;-75
2022/01/29 09:38:10;;;;;;;33.15;24.52;;;2.20;99.90;;;;;;5043151;28;20032;-75
2022/01/29 09:40:37;;;;;;;39.60;27.30;;;2.30;99.90;;;;;;5045259;28;20514;-75
2022/01/29 09:43:05;;;;;;;44.72;28.05;;;2.30;99.90;;;;;;5037054;28;20479;-75
2022/01/29 09:45:32;;;;;;;43.22;26.30;;;2.30;99.90;;;;;;5031961;28;20026;-75
2022/01/29 09:48:04;;;;;;;38.97;26.77;;;2.30;99.90;;;;;;5034193;28;20017;-75
2022/01/29 09:50:32;;;;;;;43.40;27.73;;;2.30;99.90;;;;;;5046472;28;20066;-76
2022/01/29 09:52:59;;;;;;;53.10;34.22;;;2.40;99.90;;;;;;5039332;28;20017;-75
2022/01/29 09:55:26;;;;;;;60.58;36.45;;;2.40;99.90;;;;;;5029485;28;20022;-75
2022/01/29 09:57:53;;;;;;;62.80;35.40;;;2.40;99.90;;;;;;5028071;28;20021;-75
2022/01/29 10:00:19;;;;;;;58.22;35.70;;;2.40;99.90;;;;;;5041833;28;20055;-75
2022/01/29 10:03:09;;;;;;;59.60;36.10;;;2.40;99.90;;;;;;5034403;28;20502;-75
2022/01/29 10:05:36;;;;;;;61.25;36.80;;;2.40;99.90;;;;;;5032408;28;20146;-75
2022/01/29 10:08:02;;;;;;;59.85;36.08;;;2.40;99.90;;;;;;5034887;28;20037;-75
2022/01/29 10:10:28;;;;;;;52.53;34.72;;;2.30;99.90;;;;;;5042324;28;20103;-75
2022/01/29 10:12:53;;;;;;;43.33;29.60;;;2.30;99.90;;;;;;5039952;28;20144;-75
2022/01/29 10:15:22;;;;;;;46.65;29.45;;;2.30;99.90;;;;;;5040898;28;20087;-74
2022/01/29 10:17:55;;;;;;;49.00;30.50;;;2.30;99.90;;;;;;5035254;28;20025;-73
2022/01/29 10:20:26;;;;;;;46.55;30.85;;;2.40;99.90;;;;;;5032160;28;20471;-74
2022/01/29 10:23:00;;;;;;;41.47;27.63;;;2.30;99.90;;;;;;5033524;28;20029;-75
2022/01/29 10:25:30;;;;;;;51.30;31.05;;;2.30;99.90;;;;;;5043045;28;20063;-75
2022/01/29 10:28:04;;;;;;;51.35;31.00;;;2.30;99.90;;;;;;5042596;28;20075;-75
2022/01/29 10:30:30;;;;;;;42.20;28.23;;;2.30;99.90;;;;;;5037886;28;20025;-75
2022/01/29 10:33:19;;;;;;;46.65;29.20;;;2.30;99.90;;;;;;5030613;28;20014;-75
2022/01/29 10:35:46;;;;;;;47.10;28.65;;;2.30;99.90;;;;;;5036337;28;20075;-75
2022/01/29 10:38:12;;;;;;;42.63;28.30;;;2.30;99.90;;;;;;5040581;28;20025;-75
2022/01/29 10:40:38;;;;;;;46.08;29.48;;;2.40;99.90;;;;;;5034409;28;20388;-75
2022/01/29 10:43:05;;;;;;;45.00;28.02;;;2.40;99.90;;;;;;5038668;28;20502;-75
2022/01/29 10:45:35;;;;;;;41.10;26.63;;;2.30;99.90;;;;;;5030071;28;20022;-75
2022/01/29 10:48:03;;;;;;;44.92;27.42;;;2.40;99.90;;;;;;5032713;28;20097;-75
2022/01/29 10:50:29;;;;;;;46.83;29.73;;;2.40;99.90;;;;;;5031938;28;20017;-75
2022/01/29 10:52:57;;;;;;;44.22;29.52;;;2.40;99.90;;;;;;5036168;28;20079;-75
2022/01/29 10:55:23;;;;;;;38.35;25.92;;;2.40;99.90;;;;;;5029416;28;20036;-75
2022/01/29 10:57:49;;;;;;;40.60;26.35;;;2.40;99.90;;;;;;5026329;28;20028;-75
2022/01/29 11:00:23;;;;;;;36.75;24.40;;;2.50;99.90;;;;;;5042549;28;20493;-75
2022/01/29 11:02:51;;;;;;;45.05;28.75;;;2.50;99.90;;;;;;5041407;28;20021;-75
2022/01/29 11:05:17;;;;;;;42.63;27.05;;;2.50;99.90;;;;;;5027354;28;20172;-75
2022/01/29 11:07:47;;;;;;;37.15;25.80;;;2.50;99.90;;;;;;5021933;28;20049;-75
2022/01/29 11:10:12;;;;;;;37.78;24.45;;;2.50;99.90;;;;;;5016390;28;20093;-76
2022/01/29 11:12:43;;;;;;;41.72;25.23;;;2.60;99.90;;;;;;5029445;28;20061;-75
2022/01/29 11:15:10;;;;;;;39.70;24.65;;;2.60;99.90;;;;;;5029279;28;20075;-75
2022/01/29 11:17:36;;;;;;;40.47;26.40;;;2.50;99.90;;;;;;5036273;28;20554;-76
2022/01/29 11:20:03;;;;;;;36.08;23.17;;;2.60;99.90;;;;;;5031281;28;20128;-75
2022/01/29 11:22:32;;;;;;;36.05;22.75;;;2.60;99.90;;;;;;5024206;28;20391;-75
2022/01/29 11:25:05;;;;;;;36.55;22.70;;;2.60;99.90;;;;;;5025872;28;20099;-77
2022/01/29 11:27:33;;;;;;;32.38;20.77;;;2.60;99.90;;;;;;5032403;28;20370;-76
2022/01/29 11:30:08;;;;;;;33.63;22.13;;;2.60;99.90;;;;;;5040233;28;20024;-75
2022/01/29 11:32:40;;;;;;;33.70;21.15;;;2.60;99.90;;;;;;5034190;28;20026;-75
2022/01/29 11:35:27;;;;;;;27.20;19.38;;;2.70;99.90;;;;;;5035230;28;20030;-75
2022/01/29 11:38:04;;;;;;;28.13;20.73;;;2.60;99.90;;;;;;5039523;28;20087;-75
2022/01/29 11:40:35;;;;;;;30.98;21.25;;;2.70;99.90;;;;;;5039451;28;20442;-75
2022/01/29 11:43:19;;;;;;;26.52;18.58;;;2.80;99.90;;;;;;5036692;28;20033;-76
2022/01/29 11:45:57;;;;;;;27.17;19.30;;;2.70;99.90;;;;;;5039791;28;20033;-75
2022/01/29 11:48:30;;;;;;;25.70;18.65;;;2.70;99.90;;;;;;5026342;28;20024;-75
2022/01/29 11:50:57;;;;;;;20.98;16.73;;;2.90;99.90;;;;;;5041952;28;20016;-76
2022/01/29 11:53:25;;;;;;;22.65;17.15;;;2.80;99.90;;;;;;5037967;28;20019;-75
2022/01/29 11:55:54;;;;;;;20.70;16.80;;;2.80;99.90;;;;;;5042849;28;20021;-75
2022/01/29 11:58:23;;;;;;;19.92;15.98;;;2.80;99.90;;;;;;5034712;28;20020;-75
2022/01/29 12:00:56;;;;;;;20.35;16.00;;;2.80;99.90;;;;;;5029363;28;20025;-75
2022/01/29 12:03:34;;;;;;;19.52;15.48;;;2.80;99.90;;;;;;5036878;28;20140;-75
2022/01/29 12:06:20;;;;;;;20.50;15.75;;;2.80;99.90;;;;;;5047960;28;20016;-75
2022/01/29 12:09:21;;;;;;;18.85;15.52;;;2.80;99.90;;;;;;5025698;28;20021;-76
2022/01/29 12:12:13;;;;;;;17.98;14.70;;;2.90;99.90;;;;;;5037475;28;20022;-76
2022/01/29 12:14:39;;;;;;;18.70;14.75;;;2.90;99.90;;;;;;5027509;28;20025;-76
2022/01/29 12:17:05;;;;;;;19.30;14.75;;;2.90;99.90;;;;;;5042686;28;20083;-75
2022/01/29 12:19:46;;;;;;;18.27;15.60;;;2.90;99.90;;;;;;5045679;28;20022;-76
2022/01/29 12:22:17;;;;;;;17.98;14.73;;;2.90;99.90;;;;;;5044468;28;20025;-75
2022/01/29 12:24:50;;;;;;;16.75;13.50;;;2.90;99.90;;;;;;5047014;28;20444;-76
2022/01/29 12:27:17;;;;;;;19.85;15.50;;;2.90;99.90;;;;;;5022489;28;20030;-75
2022/01/29 12:29:43;;;;;;;22.25;15.23;;;3.00;99.90;;;;;;5019737;28;20076;-74
2022/01/29 12:32:11;;;;;;;16.98;13.60;;;3.00;99.90;;;;;;5028966;28;20025;-74
2022/01/29 12:34:37;;;;;;;17.65;13.85;;;3.00;99.90;;;;;;5028679;28;20516;-75
2022/01/29 12:37:13;;;;;;;14.85;12.65;;;3.00;99.90;;;;;;5026757;28;20059;-75
2022/01/29 12:39:41;;;;;;;;;;;3.00;99.90;;;;;;5021313;28;20033;-74
2022/01/29 12:44:51;;;;;;;16.17;12.63;;;3.00;99.90;;;;;;5022168;28;20025;-74
2022/01/29 12:47:25;;;;;;;15.07;12.48;;;3.00;99.90;;;;;;5030582;28;20022;-75
2022/01/29 12:49:51;;;;;;;14.38;11.57;;;3.10;99.90;;;;;;5024438;28;20018;-74
2022/01/29 12:52:18;;;;;;;11.57;10.38;;;3.10;99.90;;;;;;5029018;28;20022;-76
2022/01/29 12:54:52;;;;;;;12.25;10.55;;;3.20;99.90;;;;;;5024799;28;20029;-76